Time;durP1;ratioP1;P1;durP2;ratioP2;P2;SDS_P1;SDS_P2;PMS_P1;PMS_P2;Temp;Humidity;BMP_temperature;BMP_pressure;BME280_temperature;BME280_humidity;BME280_pressure;Samples;Min_cycle;Max_cycle;Signal;HPM_P1;HPM_P2
2023/06/25 00:00:44;;;;;;;0.40;0.40;;;;;;;;;;5092422;28;20029;-70
2023/06/25 00:03:10;;;;;;;0.20;0.20;;;;;;;;;;5086346;28;20445;-69
2023/06/25 00:05:35;;;;;;;0.20;0.20;;;;;;;;;;5085881;28;20733;-69
2023/06/25 00:08:01;;;;;;;2.78;2.58;;;;;;;;;;5082457;28;20036;-69
2023/06/25 00:10:26;;;;;;;0.63;0.63;;;;;;;;;;5081781;28;20048;-70
2023/06/25 00:12:51;;;;;;;0.20;0.20;;;;;;;;;;5080742;28;20048;-69
2023/06/25 00:15:17;;;;;;;0.20;0.20;;;;;;;;;;5077562;28;20041;-69
2023/06/25 00:17:47;;;;;;;1.65;1.55;;;;;;;;;;5054302;28;20035;-68
2023/06/25 00:20:12;;;;;;;0.20;0.20;;;;;;;;;;5072739;28;20075;-70
2023/06/25 00:22:38;;;;;;;0.30;0.30;;;;;;;;;;5090597;28;20035;-69
2023/06/25 00:25:03;;;;;;;0.20;0.20;;;;;;;;;;5095183;28;20436;-68
2023/06/25 00:27:29;;;;;;;0.20;0.20;;;;;;;;;;5091931;28;20089;-68
2023/06/25 00:29:54;;;;;;;0.20;0.20;;;;;;;;;;5073464;28;20036;-68
2023/06/25 00:32:20;;;;;;;0.30;0.30;;;;;;;;;;5090551;28;20441;-68
2023/06/25 00:34:45;;;;;;;0.75;0.75;;;;;;;;;;5094471;28;20028;-68
2023/06/25 00:37:17;;;;;;;1.30;1.27;;;;;;;;;;5077386;28;20031;-68
2023/06/25 00:39:43;;;;;;;0.20;0.20;;;;;;;;;;5095281;28;20047;-69
2023/06/25 00:42:09;;;;;;;0.20;0.20;;;;;;;;;;5095281;28;20035;-68
2023/06/25 00:44:40;;;;;;;1.55;1.30;;;;;;;;;;5075954;28;20029;-68
2023/06/25 00:47:07;;;;;;;0.10;0.10;;;;;;;;;;5094209;28;20043;-69
2023/06/25 00:49:33;;;;;;;0.20;0.20;;;;;;;;;;5076890;28;20040;-69
2023/06/25 00:52:00;;;;;;;0.20;0.20;;;;;;;;;;5093834;28;20082;-69
2023/06/25 00:54:25;;;;;;;0.20;0.20;;;;;;;;;;5095393;28;20028;-69
2023/06/25 00:56:51;;;;;;;0.20;0.20;;;;;;;;;;5077159;28;20055;-69
2023/06/25 00:59:16;;;;;;;0.20;0.20;;;;;;;;;;5095030;28;20043;-69
2023/06/25 01:01:45;;;;;;;0.20;0.20;;;;;;;;;;5077400;28;20085;-69
2023/06/25 01:04:19;;;;;;;0.30;0.30;;;;;;;;;;5077061;28;20032;-69
2023/06/25 01:06:47;;;;;;;0.10;0.10;;;;;;;;;;5095127;28;20436;-69
2023/06/25 01:09:13;;;;;;;0.20;0.20;;;;;;;;;;5094804;28;20115;-69
2023/06/25 01:11:38;;;;;;;0.10;0.10;;;;;;;;;;5093691;28;20040;-69
2023/06/25 01:14:04;;;;;;;0.20;0.20;;;;;;;;;;5095172;28;20085;-69
2023/06/25 01:16:30;;;;;;;0.20;0.20;;;;;;;;;;5076850;28;20097;-69
2023/06/25 01:18:58;;;;;;;0.20;0.20;;;;;;;;;;5095243;28;20111;-69
2023/06/25 01:21:26;;;;;;;0.38;0.38;;;;;;;;;;5076731;28;20040;-69
2023/06/25 01:23:52;;;;;;;0.20;0.20;;;;;;;;;;5094672;28;20020;-69
2023/06/25 01:26:18;;;;;;;0.20;0.20;;;;;;;;;;5076518;28;20039;-69
2023/06/25 01:28:43;;;;;;;0.20;0.20;;;;;;;;;;5094786;28;20095;-68
2023/06/25 01:31:09;;;;;;;0.20;0.20;;;;;;;;;;5076556;28;20390;-69
2023/06/25 01:33:34;;;;;;;0.20;0.20;;;;;;;;;;5075586;28;20474;-69
2023/06/25 01:36:00;;;;;;;0.20;0.20;;;;;;;;;;5076035;28;20363;-68
2023/06/25 01:38:26;;;;;;;6.05;1.25;;;;;;;;;;5076384;28;20364;-68
2023/06/25 01:40:52;;;;;;;2.80;2.70;;;;;;;;;;5075079;28;20044;-69
2023/06/25 01:43:17;;;;;;;0.20;0.20;;;;;;;;;;5094248;28;20043;-69
2023/06/25 01:45:43;;;;;;;0.20;0.20;;;;;;;;;;5074729;28;20032;-69
2023/06/25 01:48:09;;;;;;;0.57;0.57;;;;;;;;;;5076189;28;20032;-68
2023/06/25 01:50:35;;;;;;;0.20;0.20;;;;;;;;;;5076187;28;20523;-68
2023/06/25 01:53:00;;;;;;;0.20;0.20;;;;;;;;;;5076056;28;20043;-68
2023/06/25 01:55:26;;;;;;;0.20;0.20;;;;;;;;;;5094131;28;20459;-68
2023/06/25 01:57:51;;;;;;;0.20;0.20;;;;;;;;;;5094352;28;20032;-68
2023/06/25 02:00:16;;;;;;;0.40;0.40;;;;;;;;;;5076098;28;20088;-69
2023/06/25 02:02:43;;;;;;;1.02;0.95;;;;;;;;;;5092952;28;20047;-69
2023/06/25 02:05:09;;;;;;;0.20;0.20;;;;;;;;;;5076049;28;20055;-68
2023/06/25 02:07:34;;;;;;;1.08;1.08;;;;;;;;;;5094010;28;20074;-68
2023/06/25 02:10:00;;;;;;;0.47;0.47;;;;;;;;;;5075771;28;20436;-68
2023/06/25 02:12:25;;;;;;;0.20;0.20;;;;;;;;;;5075867;28;20501;-68
2023/06/25 02:14:51;;;;;;;0.20;0.20;;;;;;;;;;5093778;28;20035;-68
2023/06/25 02:17:16;;;;;;;0.20;0.20;;;;;;;;;;5075142;28;20043;-69
2023/06/25 02:19:41;;;;;;;0.88;0.88;;;;;;;;;;5093960;28;20058;-69
2023/06/25 02:22:07;;;;;;;0.93;0.93;;;;;;;;;;5093785;28;20368;-68
2023/06/25 02:24:32;;;;;;;0.20;0.20;;;;;;;;;;5093674;28;20040;-69
2023/06/25 02:26:58;;;;;;;0.22;0.22;;;;;;;;;;5075398;28;20035;-69
2023/06/25 02:29:23;;;;;;;0.20;0.20;;;;;;;;;;5075644;28;20433;-69
2023/06/25 02:31:48;;;;;;;0.20;0.20;;;;;;;;;;5075529;28;20119;-69
2023/06/25 02:34:16;;;;;;;0.73;0.73;;;;;;;;;;5092275;28;20030;-69
2023/06/25 02:36:42;;;;;;;0.20;0.20;;;;;;;;;;5092695;28;20032;-70
2023/06/25 02:39:07;;;;;;;0.20;0.20;;;;;;;;;;5093043;28;20441;-69
2023/06/25 02:41:33;;;;;;;0.20;0.20;;;;;;;;;;5075701;28;20044;-69
2023/06/25 02:43:59;;;;;;;0.20;0.20;;;;;;;;;;5093555;28;20032;-69
2023/06/25 02:46:24;;;;;;;0.20;0.20;;;;;;;;;;5093699;28;20067;-69
2023/06/25 02:48:50;;;;;;;0.20;0.20;;;;;;;;;;5074507;28;20035;-69
2023/06/25 02:51:16;;;;;;;0.30;0.30;;;;;;;;;;5075062;28;20040;-70
2023/06/25 02:53:41;;;;;;;0.20;0.20;;;;;;;;;;5075180;28;20043;-69
2023/06/25 02:56:07;;;;;;;0.20;0.20;;;;;;;;;;5074375;28;20036;-69
2023/06/25 02:58:32;;;;;;;0.20;0.20;;;;;;;;;;5093079;28;20040;-69
2023/06/25 03:00:57;;;;;;;0.20;0.20;;;;;;;;;;5075146;28;20039;-69
2023/06/25 03:03:23;;;;;;;0.20;0.20;;;;;;;;;;5069399;28;20470;-69
2023/06/25 03:05:48;;;;;;;0.75;0.75;;;;;;;;;;5071391;28;20043;-69
2023/06/25 03:08:14;;;;;;;0.20;0.20;;;;;;;;;;5088719;28;20538;-70
2023/06/25 03:10:39;;;;;;;0.82;0.82;;;;;;;;;;5088893;28;20036;-68
2023/06/25 03:13:05;;;;;;;0.20;0.20;;;;;;;;;;5089044;28;20043;-69
2023/06/25 03:15:31;;;;;;;0.30;0.30;;;;;;;;;;5070570;28;20024;-69
2023/06/25 03:17:56;;;;;;;0.20;0.20;;;;;;;;;;5087631;28;20035;-69
2023/06/25 03:20:23;;;;;;;0.20;0.20;;;;;;;;;;5069868;28;20024;-71
2023/06/25 03:22:49;;;;;;;0.20;0.20;;;;;;;;;;5070381;28;20044;-70
2023/06/25 03:25:15;;;;;;;1.42;1.33;;;;;;;;;;5070401;28;20028;-70
2023/06/25 03:27:46;;;;;;;0.20;0.20;;;;;;;;;;5070348;28;20024;-71
2023/06/25 03:30:11;;;;;;;0.20;0.20;;;;;;;;;;5070406;28;20386;-69
2023/06/25 03:32:37;;;;;;;0.20;0.20;;;;;;;;;;5068918;28;20040;-69
2023/06/25 03:35:03;;;;;;;0.28;0.28;;;;;;;;;;5051288;28;20036;-69
2023/06/25 03:37:30;;;;;;;0.73;0.73;;;;;;;;;;5044399;28;20082;-69
2023/06/25 03:39:55;;;;;;;0.20;0.20;;;;;;;;;;5082087;28;20055;-69
2023/06/25 03:42:20;;;;;;;0.40;0.40;;;;;;;;;;5084960;28;20108;-69
2023/06/25 03:44:48;;;;;;;0.20;0.20;;;;;;;;;;5070056;28;20162;-70
2023/06/25 03:47:17;;;;;;;0.20;0.20;;;;;;;;;;5070104;28;20043;-70
2023/06/25 03:49:43;;;;;;;0.25;0.25;;;;;;;;;;5067939;28;20856;-71
2023/06/25 03:52:08;;;;;;;0.35;0.35;;;;;;;;;;5086320;28;20401;-69
2023/06/25 03:54:35;;;;;;;0.20;0.20;;;;;;;;;;5053170;28;20097;-69
2023/06/25 03:57:01;;;;;;;0.20;0.20;;;;;;;;;;5070040;28;20053;-69
2023/06/25 03:59:28;;;;;;;0.20;0.20;;;;;;;;;;5069577;28;20119;-70
2023/06/25 04:01:54;;;;;;;0.20;0.20;;;;;;;;;;5069367;28;20029;-74
2023/06/25 04:04:19;;;;;;;0.20;0.20;;;;;;;;;;5070139;28;20036;-70
2023/06/25 04:06:45;;;;;;;0.20;0.20;;;;;;;;;;5070361;28;20028;-71
2023/06/25 04:09:14;;;;;;;0.20;0.20;;;;;;;;;;5073458;28;20028;-71
2023/06/25 04:11:39;;;;;;;0.20;0.20;;;;;;;;;;5073721;28;20390;-71
2023/06/25 04:14:05;;;;;;;0.20;0.20;;;;;;;;;;5073769;28;20032;-71
2023/06/25 04:16:31;;;;;;;0.40;0.40;;;;;;;;;;5057066;28;20888;-73
2023/06/25 04:18:57;;;;;;;3.30;1.40;;;;;;;;;;5073707;28;20071;-71
2023/06/25 04:21:22;;;;;;;0.20;0.20;;;;;;;;;;5073468;28;20491;-71
2023/06/25 04:23:48;;;;;;;0.20;0.20;;;;;;;;;;5073417;28;20070;-71
2023/06/25 04:26:13;;;;;;;0.20;0.20;;;;;;;;;;5091867;28;20039;-71
2023/06/25 04:28:40;;;;;;;0.20;0.20;;;;;;;;;;5073924;28;20394;-70
2023/06/25 04:31:06;;;;;;;0.20;0.20;;;;;;;;;;5073475;28;20047;-70
2023/06/25 04:33:33;;;;;;;0.20;0.20;;;;;;;;;;5073401;28;20036;-69
2023/06/25 04:35:58;;;;;;;0.10;0.10;;;;;;;;;;5088861;28;20522;-71
2023/06/25 04:38:24;;;;;;;0.20;0.20;;;;;;;;;;5073322;28;20119;-71
2023/06/25 04:40:50;;;;;;;0.20;0.20;;;;;;;;;;5072866;28;20028;-71
2023/06/25 04:43:15;;;;;;;0.20;0.20;;;;;;;;;;5091501;28;20047;-70
2023/06/25 04:45:41;;;;;;;0.20;0.20;;;;;;;;;;5072297;28;20071;-73
2023/06/25 04:48:07;;;;;;;0.20;0.20;;;;;;;;;;5091240;28;20070;-71
2023/06/25 04:50:32;;;;;;;0.20;0.20;;;;;;;;;;5073659;28;20581;-70
2023/06/25 04:52:58;;;;;;;0.22;0.22;;;;;;;;;;5091386;28;20020;-69
2023/06/25 04:55:23;;;;;;;0.20;0.20;;;;;;;;;;5091400;28;20092;-69
2023/06/25 04:57:49;;;;;;;0.20;0.20;;;;;;;;;;5091524;28;20115;-69
2023/06/25 05:00:15;;;;;;;0.77;0.77;;;;;;;;;;5089963;28;20475;-70
2023/06/25 05:02:40;;;;;;;0.20;0.20;;;;;;;;;;5087694;28;20016;-69
2023/06/25 05:05:06;;;;;;;0.20;0.20;;;;;;;;;;5091164;28;20039;-69
2023/06/25 05:07:31;;;;;;;0.20;0.20;;;;;;;;;;5091118;28;20482;-72
2023/06/25 05:09:56;;;;;;;0.20;0.20;;;;;;;;;;5090003;28;20138;-70
2023/06/25 05:12:22;;;;;;;0.20;0.20;;;;;;;;;;5054542;28;20392;-69
2023/06/25 05:14:47;;;;;;;0.77;0.77;;;;;;;;;;5068859;28;20033;-69
2023/06/25 05:17:13;;;;;;;0.20;0.20;;;;;;;;;;5068665;28;20530;-70
2023/06/25 05:19:38;;;;;;;0.20;0.20;;;;;;;;;;5083802;28;20032;-69
2023/06/25 05:22:05;;;;;;;0.30;0.30;;;;;;;;;;5087758;28;20039;-69
2023/06/25 05:24:30;;;;;;;0.25;0.25;;;;;;;;;;5089049;28;20086;-68
2023/06/25 05:26:55;;;;;;;0.20;0.20;;;;;;;;;;5090320;28;20085;-68
2023/06/25 05:29:22;;;;;;;0.25;0.25;;;;;;;;;;5090688;28;20036;-69
2023/06/25 05:31:48;;;;;;;0.82;0.82;;;;;;;;;;5089465;28;20039;-69
2023/06/25 05:34:13;;;;;;;0.30;0.30;;;;;;;;;;5089153;28;20399;-70
2023/06/25 05:36:38;;;;;;;1.40;1.30;;;;;;;;;;5072343;28;20035;-69
2023/06/25 05:39:04;;;;;;;1.00;1.00;;;;;;;;;;5090877;28;20043;-73
2023/06/25 05:41:30;;;;;;;0.28;0.28;;;;;;;;;;5090973;28;20032;-68
2023/06/25 05:43:55;;;;;;;0.20;0.20;;;;;;;;;;5092835;28;20060;-68
2023/06/25 05:46:20;;;;;;;0.30;0.30;;;;;;;;;;5074875;28;20028;-72
2023/06/25 05:48:47;;;;;;;0.20;0.20;;;;;;;;;;5099543;28;20257;-72
2023/06/25 05:51:12;;;;;;;0.20;0.20;;;;;;;;;;5091574;28;20032;-69
2023/06/25 05:53:42;;;;;;;1.67;1.58;;;;;;;;;;5090561;28;20036;-69
2023/06/25 05:56:07;;;;;;;0.28;0.28;;;;;;;;;;5089033;28;20556;-69
2023/06/25 05:58:36;;;;;;;0.30;0.30;;;;;;;;;;5090663;28;20114;-69
2023/06/25 06:01:02;;;;;;;0.30;0.30;;;;;;;;;;5088218;28;20107;-69
2023/06/25 06:03:28;;;;;;;0.50;0.50;;;;;;;;;;5055343;28;20115;-68
2023/06/25 06:05:55;;;;;;;0.30;0.30;;;;;;;;;;5071440;28;20122;-68
2023/06/25 06:08:21;;;;;;;0.60;0.60;;;;;;;;;;5089981;28;20028;-69
2023/06/25 06:10:46;;;;;;;0.77;0.77;;;;;;;;;;5072050;28;20034;-69
2023/06/25 06:13:11;;;;;;;2.45;2.30;;;;;;;;;;5088993;28;20433;-68
2023/06/25 06:15:37;;;;;;;0.30;0.30;;;;;;;;;;5090169;28;20035;-69
2023/06/25 06:18:02;;;;;;;0.20;0.20;;;;;;;;;;5087827;28;20477;-69
2023/06/25 06:20:28;;;;;;;0.40;0.40;;;;;;;;;;5088628;28;20060;-68
2023/06/25 06:22:53;;;;;;;0.30;0.30;;;;;;;;;;5087014;28;20016;-68
2023/06/25 06:25:19;;;;;;;0.30;0.30;;;;;;;;;;5089887;28;20494;-69
2023/06/25 06:27:44;;;;;;;0.20;0.20;;;;;;;;;;5089721;28;20450;-69
2023/06/25 06:30:10;;;;;;;0.40;0.40;;;;;;;;;;5086444;28;20121;-70
2023/06/25 06:32:35;;;;;;;0.30;0.30;;;;;;;;;;5070610;28;20035;-72
2023/06/25 06:35:00;;;;;;;0.30;0.30;;;;;;;;;;5089852;28;20024;-70
2023/06/25 06:37:26;;;;;;;0.30;0.30;;;;;;;;;;5089485;28;20044;-71
2023/06/25 06:39:52;;;;;;;0.30;0.30;;;;;;;;;;5089692;28;20032;-69
2023/06/25 06:42:18;;;;;;;1.52;1.48;;;;;;;;;;5071215;28;20475;-71
2023/06/25 06:44:43;;;;;;;0.30;0.30;;;;;;;;;;5088548;28;20046;-70
2023/06/25 06:47:09;;;;;;;0.32;0.32;;;;;;;;;;5088257;28;20446;-70
2023/06/25 06:49:34;;;;;;;0.30;0.30;;;;;;;;;;5088327;28;20047;-69
2023/06/25 06:51:59;;;;;;;8.98;2.38;;;;;;;;;;5087702;28;20036;-70
2023/06/25 06:54:25;;;;;;;0.30;0.30;;;;;;;;;;5089002;28;20036;-72
2023/06/25 06:56:50;;;;;;;0.30;0.30;;;;;;;;;;5088169;28;20066;-73
2023/06/25 06:59:15;;;;;;;0.30;0.30;;;;;;;;;;5086779;28;20382;-75
2023/06/25 07:01:41;;;;;;;0.40;0.40;;;;;;;;;;5085098;28;20043;-68
2023/06/25 07:04:06;;;;;;;0.32;0.32;;;;;;;;;;5087647;28;20360;-69
2023/06/25 07:06:32;;;;;;;0.30;0.30;;;;;;;;;;5089217;28;20032;-70
2023/06/25 07:08:57;;;;;;;0.35;0.35;;;;;;;;;;5088135;28;20032;-69
2023/06/25 07:11:23;;;;;;;0.40;0.40;;;;;;;;;;5089353;28;20020;-68
2023/06/25 07:13:49;;;;;;;0.28;0.28;;;;;;;;;;5089147;28;20032;-68
2023/06/25 07:16:15;;;;;;;0.40;0.40;;;;;;;;;;5089160;28;20040;-70
2023/06/25 07:18:40;;;;;;;0.40;0.40;;;;;;;;;;5088079;28;20077;-70
2023/06/25 07:21:06;;;;;;;0.40;0.40;;;;;;;;;;5069497;28;20506;-70
2023/06/25 07:23:32;;;;;;;0.40;0.40;;;;;;;;;;5070754;28;20044;-69
2023/06/25 07:25:57;;;;;;;0.43;0.43;;;;;;;;;;5088795;28;20164;-70
2023/06/25 07:28:23;;;;;;;0.50;0.50;;;;;;;;;;5088275;28;20031;-69
2023/06/25 07:30:48;;;;;;;0.40;0.40;;;;;;;;;;5088793;28;20474;-69
2023/06/25 07:33:14;;;;;;;0.40;0.40;;;;;;;;;;5088984;28;20062;-69
2023/06/25 07:35:39;;;;;;;0.40;0.40;;;;;;;;;;5082607;28;20028;-68
2023/06/25 07:38:05;;;;;;;0.52;0.52;;;;;;;;;;5077350;28;20032;-68
2023/06/25 07:40:30;;;;;;;0.50;0.50;;;;;;;;;;5068174;28;20044;-68
2023/06/25 07:42:56;;;;;;;0.30;0.30;;;;;;;;;;5068122;28;20032;-71
2023/06/25 07:45:21;;;;;;;0.38;0.38;;;;;;;;;;5071101;28;20051;-68
2023/06/25 07:47:46;;;;;;;1.88;1.77;;;;;;;;;;5081816;28;20047;-69
2023/06/25 07:50:12;;;;;;;0.55;0.55;;;;;;;;;;5080729;28;20056;-68
2023/06/25 07:52:37;;;;;;;0.65;0.65;;;;;;;;;;5080958;28;20036;-68
2023/06/25 07:55:02;;;;;;;0.60;0.60;;;;;;;;;;5076720;28;20079;-69
2023/06/25 07:57:28;;;;;;;0.40;0.40;;;;;;;;;;5079095;28;20427;-68
2023/06/25 07:59:53;;;;;;;0.40;0.40;;;;;;;;;;5077574;28;20109;-68
2023/06/25 08:02:19;;;;;;;0.30;0.30;;;;;;;;;;5076901;28;20024;-69
2023/06/25 08:04:44;;;;;;;0.30;0.30;;;;;;;;;;5078852;28;20035;-68
2023/06/25 08:07:10;;;;;;;0.50;0.50;;;;;;;;;;5077441;28;20025;-69
2023/06/25 08:09:35;;;;;;;0.38;0.38;;;;;;;;;;5077684;28;20016;-68
2023/06/25 08:12:00;;;;;;;0.40;0.40;;;;;;;;;;5078560;28;20028;-68
2023/06/25 08:14:26;;;;;;;0.40;0.40;;;;;;;;;;5075395;28;20111;-68
2023/06/25 08:16:51;;;;;;;3.10;2.95;;;;;;;;;;5088328;28;20032;-70
2023/06/25 08:19:17;;;;;;;0.30;0.30;;;;;;;;;;5082032;28;20036;-68
2023/06/25 08:21:42;;;;;;;0.40;0.40;;;;;;;;;;5068001;28;20111;-70
2023/06/25 08:24:07;;;;;;;0.47;0.47;;;;;;;;;;5067961;28;20043;-69
2023/06/25 08:26:33;;;;;;;0.32;0.32;;;;;;;;;;5067692;28;20857;-68
2023/06/25 08:28:58;;;;;;;0.40;0.40;;;;;;;;;;5086321;28;20107;-68
2023/06/25 08:31:23;;;;;;;0.30;0.30;;;;;;;;;;5088095;28;20048;-70
2023/06/25 08:33:49;;;;;;;0.77;0.77;;;;;;;;;;5070149;28;20028;-69
2023/06/25 08:36:14;;;;;;;0.40;0.40;;;;;;;;;;5087850;28;20028;-69
2023/06/25 08:38:40;;;;;;;0.38;0.38;;;;;;;;;;5087656;28;20054;-68
2023/06/25 08:41:05;;;;;;;0.40;0.40;;;;;;;;;;5076231;28;20426;-68
2023/06/25 08:43:31;;;;;;;0.47;0.47;;;;;;;;;;5083581;28;20027;-69
2023/06/25 08:45:56;;;;;;;0.40;0.40;;;;;;;;;;5085681;28;20105;-70
2023/06/25 08:48:25;;;;;;;0.50;0.50;;;;;;;;;;5078964;28;20028;-68
2023/06/25 08:50:58;;;;;;;0.40;0.40;;;;;;;;;;5079553;28;20047;-68
2023/06/25 08:53:30;;;;;;;0.30;0.30;;;;;;;;;;5063189;28;20360;-69
2023/06/25 08:55:56;;;;;;;0.45;0.45;;;;;;;;;;5091284;28;20035;-69
2023/06/25 08:58:22;;;;;;;0.38;0.38;;;;;;;;;;5076135;28;20040;-69
2023/06/25 09:00:48;;;;;;;0.40;0.40;;;;;;;;;;5070940;28;20036;-70
2023/06/25 09:03:13;;;;;;;0.40;0.40;;;;;;;;;;5071150;28;20094;-69
2023/06/25 09:05:38;;;;;;;0.47;0.47;;;;;;;;;;5071268;28;20406;-68
2023/06/25 09:08:04;;;;;;;0.32;0.32;;;;;;;;;;5070846;28;20483;-69
2023/06/25 09:10:31;;;;;;;0.47;0.47;;;;;;;;;;5070504;28;20075;-68
2023/06/25 09:12:59;;;;;;;0.30;0.30;;;;;;;;;;5071216;28;20037;-71
2023/06/25 09:15:25;;;;;;;0.73;0.73;;;;;;;;;;5071107;28;20043;-70
2023/06/25 09:17:54;;;;;;;0.60;0.60;;;;;;;;;;5071072;28;20040;-70
2023/06/25 09:20:19;;;;;;;;;;;;;;;;;;5070837;28;20090;-70
2023/06/25 09:22:48;;;;;;;0.43;0.43;;;;;;;;;;5070481;28;19913;-69
2023/06/25 09:25:13;;;;;;;0.40;0.40;;;;;;;;;;5077996;28;20024;-70
2023/06/25 09:27:39;;;;;;;0.40;0.40;;;;;;;;;;5081911;28;20028;-69
2023/06/25 09:30:05;;;;;;;0.40;0.40;;;;;;;;;;5080319;28;20032;-69
2023/06/25 09:32:30;;;;;;;0.50;0.50;;;;;;;;;;5080572;28;20029;-69
2023/06/25 09:34:55;;;;;;;0.30;0.30;;;;;;;;;;5079028;28;20020;-70
2023/06/25 09:37:21;;;;;;;37.05;7.22;;;;;;;;;;5081376;28;20943;-68
2023/06/25 09:39:46;;;;;;;1.10;0.98;;;;;;;;;;5079787;28;20039;-69
2023/06/25 09:42:12;;;;;;;0.52;0.52;;;;;;;;;;5061204;28;20039;-69
2023/06/25 09:44:38;;;;;;;0.40;0.40;;;;;;;;;;5080837;28;20053;-70
2023/06/25 09:47:06;;;;;;;0.73;0.73;;;;;;;;;;5079644;28;20036;-68
2023/06/25 09:49:32;;;;;;;0.95;0.88;;;;;;;;;;5080137;28;20475;-72
2023/06/25 09:51:57;;;;;;;1.40;1.30;;;;;;;;;;5087726;28;20044;-72
2023/06/25 09:54:24;;;;;;;0.77;0.77;;;;;;;;;;5088702;28;20420;-71
2023/06/25 09:56:50;;;;;;;0.73;0.73;;;;;;;;;;5089857;28;20383;-70
2023/06/25 09:59:16;;;;;;;3.50;1.40;;;;;;;;;;5088129;28;20032;-70
2023/06/25 10:01:41;;;;;;;1.45;0.80;;;;;;;;;;5083821;28;20085;-70
2023/06/25 10:04:07;;;;;;;0.75;0.75;;;;;;;;;;5077164;28;20028;-73
2023/06/25 10:06:34;;;;;;;0.57;0.57;;;;;;;;;;5072558;28;20093;-73
2023/06/25 10:09:00;;;;;;;1.42;1.00;;;;;;;;;;5081516;28;20032;-73
2023/06/25 10:11:26;;;;;;;0.70;0.70;;;;;;;;;;5077752;28;20040;-72
2023/06/25 10:13:52;;;;;;;1.75;1.05;;;;;;;;;;5080356;28;20035;-70
2023/06/25 10:16:21;;;;;;;0.50;0.50;;;;;;;;;;5078272;28;20574;-71
2023/06/25 10:18:47;;;;;;;;;;;;;;;;;;5079067;28;20020;-71
2023/06/25 10:21:22;;;;;;;0.75;0.75;;;;;;;;;;5061956;28;20366;-72
2023/06/25 10:23:57;;;;;;;0.60;0.60;;;;;;;;;;5079804;28;20483;-70
2023/06/25 10:26:30;;;;;;;0.75;0.75;;;;;;;;;;5074732;28;20032;-71
2023/06/25 10:28:58;;;;;;;2.85;2.00;;;;;;;;;;5080004;28;20028;-71
2023/06/25 10:31:23;;;;;;;0.65;0.60;;;;;;;;;;5093897;28;20478;-72
2023/06/25 10:33:49;;;;;;;1.15;0.77;;;;;;;;;;5079067;28;20036;-70
2023/06/25 10:36:14;;;;;;;0.35;0.35;;;;;;;;;;5079812;28;20060;-71
2023/06/25 10:38:40;;;;;;;1.63;1.02;;;;;;;;;;5078157;28;20028;-72
2023/06/25 10:41:06;;;;;;;0.77;0.60;;;;;;;;;;5043727;28;20028;-73
2023/06/25 10:43:31;;;;;;;1.88;1.35;;;;;;;;;;5078103;28;20073;-69
2023/06/25 10:45:57;;;;;;;2.72;1.55;;;;;;;;;;5079028;28;20403;-70
2023/06/25 10:48:23;;;;;;;0.65;0.60;;;;;;;;;;5079123;28;20059;-68
2023/06/25 10:50:50;;;;;;;0.45;0.45;;;;;;;;;;5078550;28;20028;-69
2023/06/25 10:53:16;;;;;;;1.45;0.95;;;;;;;;;;5065227;28;20027;-70
2023/06/25 10:55:45;;;;;;;0.82;0.60;;;;;;;;;;5086387;28;20028;-70
2023/06/25 10:58:13;;;;;;;4.03;1.23;;;;;;;;;;5094109;28;20043;-71
2023/06/25 11:00:38;;;;;;;1.95;1.23;;;;;;;;;;5089386;28;20490;-73
2023/06/25 11:03:04;;;;;;;5.35;2.13;;;;;;;;;;5089695;28;20032;-72
2023/06/25 11:05:39;;;;;;;0.73;0.73;;;;;;;;;;5089150;28;20097;-72
2023/06/25 11:08:05;;;;;;;0.70;0.60;;;;;;;;;;5082676;28;20433;-71
2023/06/25 11:10:31;;;;;;;1.02;1.02;;;;;;;;;;5073753;28;20036;-72
2023/06/25 11:12:57;;;;;;;0.90;0.82;;;;;;;;;;5068720;28;20093;-73
2023/06/25 11:15:22;;;;;;;0.43;0.43;;;;;;;;;;5068688;28;20428;-72
2023/06/25 11:17:54;;;;;;;1.88;1.27;;;;;;;;;;5068005;28;20036;-71
2023/06/25 11:20:23;;;;;;;0.70;0.70;;;;;;;;;;5069818;28;20031;-72
2023/06/25 11:22:48;;;;;;;1.00;0.80;;;;;;;;;;5087985;28;20035;-71
2023/06/25 11:25:14;;;;;;;1.60;1.10;;;;;;;;;;5085544;28;20082;-71
2023/06/25 11:27:40;;;;;;;2.00;1.30;;;;;;;;;;5085100;28;20036;-73
2023/06/25 11:30:08;;;;;;;0.70;0.70;;;;;;;;;;5077112;28;20024;-71
2023/06/25 11:32:33;;;;;;;1.80;1.20;;;;;;;;;;5052013;28;20342;-72
2023/06/25 11:34:59;;;;;;;1.00;0.70;;;;;;;;;;5067213;28;20384;-71
2023/06/25 11:37:27;;;;;;;1.10;1.00;;;;;;;;;;5072964;28;20456;-72
2023/06/25 11:39:52;;;;;;;0.50;0.50;;;;;;;;;;5082518;28;20086;-73
2023/06/25 11:42:19;;;;;;;2.85;1.40;;;;;;;;;;5086788;28;20044;-72
2023/06/25 11:44:45;;;;;;;1.08;0.98;;;;;;;;;;5088538;28;20032;-71
2023/06/25 11:47:13;;;;;;;3.78;1.80;;;;;;;;;;5093437;28;20035;-74
2023/06/25 11:49:38;;;;;;;5.43;0.93;;;;;;;;;;5098576;28;20115;-73
2023/06/25 11:52:04;;;;;;;3.80;1.42;;;;;;;;;;5087940;28;20526;-74
2023/06/25 11:54:30;;;;;;;1.85;1.00;;;;;;;;;;5091595;28;20063;-74
2023/06/25 11:56:55;;;;;;;0.32;0.32;;;;;;;;;;5096426;28;20541;-72
2023/06/25 11:59:20;;;;;;;1.02;0.90;;;;;;;;;;5089508;28;20398;-73
2023/06/25 12:01:46;;;;;;;1.20;0.93;;;;;;;;;;5090937;28;20063;-72
2023/06/25 12:04:12;;;;;;;0.85;0.77;;;;;;;;;;5072144;28;20036;-71
2023/06/25 12:06:37;;;;;;;2.78;1.63;;;;;;;;;;5060899;28;20042;-73
2023/06/25 12:09:03;;;;;;;4.85;1.55;;;;;;;;;;5088557;28;20467;-73
2023/06/25 12:11:29;;;;;;;2.92;1.45;;;;;;;;;;5082185;28;20040;-73
2023/06/25 12:13:54;;;;;;;2.05;1.33;;;;;;;;;;5075955;28;20036;-73
2023/06/25 12:16:20;;;;;;;2.50;1.38;;;;;;;;;;5071355;28;20037;-73
2023/06/25 12:18:45;;;;;;;1.23;0.88;;;;;;;;;;5078825;28;20035;-71
2023/06/25 12:21:11;;;;;;;0.60;0.60;;;;;;;;;;5068273;28;20435;-71
2023/06/25 12:23:36;;;;;;;3.08;1.60;;;;;;;;;;5078252;28;20187;-71
2023/06/25 12:26:01;;;;;;;0.65;0.65;;;;;;;;;;5078753;28;20111;-71
2023/06/25 12:28:27;;;;;;;1.30;0.90;;;;;;;;;;5087844;28;20368;-73
2023/06/25 12:30:52;;;;;;;2.03;1.10;;;;;;;;;;5091798;28;20036;-73
2023/06/25 12:33:18;;;;;;;2.40;1.58;;;;;;;;;;5092545;28;20449;-72
2023/06/25 12:35:43;;;;;;;1.45;1.00;;;;;;;;;;5099554;28;20050;-71
2023/06/25 12:38:08;;;;;;;0.52;0.50;;;;;;;;;;5109443;28;20084;-72
2023/06/25 12:40:34;;;;;;;1.13;0.88;;;;;;;;;;5111571;28;20031;-72
2023/06/25 12:42:59;;;;;;;2.67;1.50;;;;;;;;;;5112028;28;20531;-72
2023/06/25 12:45:25;;;;;;;1.33;0.98;;;;;;;;;;5111659;28;20063;-70
2023/06/25 12:47:51;;;;;;;4.32;1.25;;;;;;;;;;5111918;28;20085;-73
2023/06/25 12:50:17;;;;;;;0.70;0.70;;;;;;;;;;5110471;28;20039;-73
2023/06/25 12:52:43;;;;;;;1.25;0.75;;;;;;;;;;5079920;28;20458;-71
2023/06/25 12:55:09;;;;;;;1.20;1.10;;;;;;;;;;5090391;28;20032;-72
2023/06/25 12:57:37;;;;;;;3.38;1.80;;;;;;;;;;5100305;28;20028;-72
2023/06/25 13:00:05;;;;;;;4.63;1.93;;;;;;;;;;5076708;28;20414;-72
2023/06/25 13:02:31;;;;;;;2.35;0.90;;;;;;;;;;5096339;28;20031;-72
2023/06/25 13:04:56;;;;;;;1.90;1.20;;;;;;;;;;5097475;28;20164;-73
2023/06/25 13:07:22;;;;;;;2.50;1.40;;;;;;;;;;5100071;28;20031;-73
2023/06/25 13:09:47;;;;;;;0.90;0.82;;;;;;;;;;5095459;28;20032;-75
2023/06/25 13:12:13;;;;;;;0.65;0.65;;;;;;;;;;5099885;28;20028;-72
2023/06/25 13:14:38;;;;;;;2.17;1.23;;;;;;;;;;5092836;28;20084;-72
2023/06/25 13:17:04;;;;;;;7.20;1.55;;;;;;;;;;5079552;28;20482;-74
2023/06/25 13:19:29;;;;;;;0.88;0.80;;;;;;;;;;5103562;28;20031;-72
2023/06/25 13:21:55;;;;;;;5.55;1.73;;;;;;;;;;5089836;28;20197;-73
2023/06/25 13:24:26;;;;;;;3.20;1.63;;;;;;;;;;5101310;28;20043;-74
2023/06/25 13:26:53;;;;;;;4.28;1.10;;;;;;;;;;5094536;28;20031;-73
2023/06/25 13:29:19;;;;;;;2.55;1.15;;;;;;;;;;5079370;28;20085;-71
2023/06/25 13:31:44;;;;;;;1.42;0.90;;;;;;;;;;5072503;28;20508;-70
2023/06/25 13:34:10;;;;;;;4.35;1.73;;;;;;;;;;5090629;28;20059;-72
2023/06/25 13:36:35;;;;;;;5.95;2.05;;;;;;;;;;5091001;28;20031;-73
2023/06/25 13:39:00;;;;;;;2.40;1.30;;;;;;;;;;5089177;28;20459;-74
2023/06/25 13:41:26;;;;;;;2.38;0.90;;;;;;;;;;5090016;28;20043;-72
2023/06/25 13:43:52;;;;;;;1.98;1.15;;;;;;;;;;5088928;28;20028;-74
2023/06/25 13:46:17;;;;;;;2.05;1.17;;;;;;;;;;5090325;28;20466;-73
2023/06/25 13:48:43;;;;;;;3.65;3.10;;;;;;;;;;5095594;28;20035;-72
2023/06/25 13:51:08;;;;;;;2.65;1.63;;;;;;;;;;5091597;28;20044;-73
2023/06/25 13:53:33;;;;;;;0.43;0.43;;;;;;;;;;5090348;28;20032;-71
2023/06/25 13:55:59;;;;;;;2.10;1.55;;;;;;;;;;5090740;28;20085;-72
2023/06/25 13:58:25;;;;;;;10.82;1.63;;;;;;;;;;5089967;28;20059;-74
2023/06/25 14:00:54;;;;;;;1.25;0.85;;;;;;;;;;5092120;28;20458;-73
2023/06/25 14:03:20;;;;;;;2.30;1.40;;;;;;;;;;5072261;28;20028;-73
2023/06/25 14:05:45;;;;;;;1.25;1.02;;;;;;;;;;5092780;28;20028;-72
2023/06/25 14:08:11;;;;;;;1.27;0.90;;;;;;;;;;5072265;28;20051;-72
2023/06/25 14:10:36;;;;;;;3.20;1.25;;;;;;;;;;5090606;28;20068;-73
2023/06/25 14:13:02;;;;;;;2.08;1.63;;;;;;;;;;5090299;28;20024;-72
2023/06/25 14:15:27;;;;;;;2.75;1.52;;;;;;;;;;5089890;28;20036;-73
2023/06/25 14:17:53;;;;;;;7.00;1.70;;;;;;;;;;5089970;28;20028;-72
2023/06/25 14:20:19;;;;;;;2.65;1.50;;;;;;;;;;5089830;28;20085;-73
2023/06/25 14:22:44;;;;;;;1.55;0.95;;;;;;;;;;5087364;28;20035;-73
2023/06/25 14:25:09;;;;;;;0.63;0.63;;;;;;;;;;5086668;28;20425;-71
2023/06/25 14:27:35;;;;;;;1.88;0.90;;;;;;;;;;5063813;28;20028;-73
2023/06/25 14:30:00;;;;;;;3.38;1.80;;;;;;;;;;5086250;28;20036;-73
2023/06/25 14:32:26;;;;;;;1.52;1.02;;;;;;;;;;5089667;28;20024;-73
2023/06/25 14:34:51;;;;;;;5.28;1.27;;;;;;;;;;5089487;28;20576;-72